sensor_id;sensor_type;location;lat;lon;timestamp;P1;durP1;ratioP1;P2;durP2;ratioP2
26914;SDS011;14480;52.608;13.416;2022-09-16T05:52:21;9.35;;;2.45;;
26914;SDS011;14480;52.608;13.416;2022-09-16T05:57:28;10.45;;;2.35;;
26914;SDS011;14480;52.608;13.416;2022-09-16T06:02:32;6.72;;;2.20;;
26914;SDS011;14480;52.608;13.416;2022-09-16T06:07:36;8.25;;;2.00;;
26914;SDS011;14480;52.608;13.416;2022-09-16T06:12:42;6.90;;;2.22;;
26914;SDS011;14480;52.608;13.416;2022-09-16T06:17:48;8.00;;;2.40;;
26914;SDS011;14480;52.608;13.416;2022-09-16T06:22:55;6.53;;;2.40;;
26914;SDS011;14480;52.608;13.416;2022-09-16T06:28:01;9.45;;;2.17;;
26914;SDS011;14480;52.608;13.416;2022-09-16T06:33:04;6.47;;;2.30;;
26914;SDS011;14480;52.608;13.416;2022-09-16T06:38:10;8.70;;;1.97;;
26914;SDS011;14480;52.608;13.416;2022-09-16T06:43:14;8.23;;;2.25;;
26914;SDS011;14480;52.608;13.416;2022-09-16T06:48:17;9.90;;;2.13;;
26914;SDS011;14480;52.608;13.416;2022-09-16T06:53:24;5.88;;;1.48;;
26914;SDS011;14480;52.608;13.416;2022-09-16T06:58:30;8.60;;;3.03;;
26914;SDS011;14480;52.608;13.416;2022-09-16T07:03:37;5.78;;;1.75;;
26914;SDS011;14480;52.608;13.416;2022-09-16T07:08:46;5.00;;;1.67;;
26914;SDS011;14480;52.608;13.416;2022-09-16T07:13:51;8.30;;;1.60;;
26914;SDS011;14480;52.608;13.416;2022-09-16T07:18:55;5.87;;;1.40;;
26914;SDS011;14480;52.608;13.416;2022-09-16T07:24:03;6.47;;;1.58;;
26914;SDS011;14480;52.608;13.416;2022-09-16T07:29:10;7.43;;;1.65;;
26914;SDS011;14480;52.608;13.416;2022-09-16T07:34:17;9.30;;;2.08;;
26914;SDS011;14480;52.608;13.416;2022-09-16T07:39:22;8.25;;;1.95;;
26914;SDS011;14480;52.608;13.416;2022-09-16T07:44:26;8.68;;;1.80;;
26914;SDS011;14480;52.608;13.416;2022-09-16T07:49:31;5.18;;;1.52;;
26914;SDS011;14480;52.608;13.416;2022-09-16T07:54:37;5.97;;;1.42;;
26914;SDS011;14480;52.608;13.416;2022-09-16T07:59:41;8.73;;;1.52;;
26914;SDS011;14480;52.608;13.416;2022-09-16T08:04:44;7.05;;;1.40;;
26914;SDS011;14480;52.608;13.416;2022-09-16T08:09:50;6.00;;;1.17;;
26914;SDS011;14480;52.608;13.416;2022-09-16T08:14:55;5.90;;;1.80;;
26914;SDS011;14480;52.608;13.416;2022-09-16T08:19:59;6.32;;;1.73;;
26914;SDS011;14480;52.608;13.416;2022-09-16T08:25:06;7.50;;;1.55;;
26914;SDS011;14480;52.608;13.416;2022-09-16T08:30:10;6.78;;;1.30;;
26914;SDS011;14480;52.608;13.416;2022-09-16T08:35:14;4.33;;;1.17;;
26914;SDS011;14480;52.608;13.416;2022-09-16T08:40:21;3.47;;;1.30;;
26914;SDS011;14480;52.608;13.416;2022-09-16T08:45:40;10.68;;;2.13;;
26914;SDS011;14480;52.608;13.416;2022-09-16T08:50:52;6.05;;;1.33;;
26914;SDS011;14480;52.608;13.416;2022-09-16T08:55:58;5.95;;;1.88;;
26914;SDS011;14480;52.608;13.416;2022-09-16T09:01:17;5.40;;;1.70;;
26914;SDS011;14480;52.608;13.416;2022-09-16T09:06:36;5.63;;;2.03;;
26914;SDS011;14480;52.608;13.416;2022-09-16T09:11:58;9.77;;;2.55;;
26914;SDS011;14480;52.608;13.416;2022-09-16T09:17:08;7.50;;;1.63;;
26914;SDS011;14480;52.608;13.416;2022-09-16T09:22:21;8.32;;;1.70;;
26914;SDS011;14480;52.608;13.416;2022-09-16T09:27:38;10.25;;;2.17;;
26914;SDS011;14480;52.608;13.416;2022-09-16T09:33:01;8.73;;;2.30;;
26914;SDS011;14480;52.608;13.416;2022-09-16T09:38:42;9.23;;;2.00;;
26914;SDS011;14480;52.608;13.416;2022-09-16T09:44:00;9.07;;;1.70;;
26914;SDS011;14480;52.608;13.416;2022-09-16T09:49:12;8.90;;;1.35;;
26914;SDS011;14480;52.608;13.416;2022-09-16T09:54:21;7.82;;;1.60;;
26914;SDS011;14480;52.608;13.416;2022-09-16T09:59:31;11.02;;;1.80;;
26914;SDS011;14480;52.608;13.416;2022-09-16T10:04:41;9.32;;;1.65;;
26914;SDS011;14480;52.608;13.416;2022-09-16T10:09:46;7.05;;;1.00;;
26914;SDS011;14480;52.608;13.416;2022-09-16T10:14:56;12.25;;;1.50;;
26914;SDS011;14480;52.608;13.416;2022-09-16T10:20:03;10.75;;;1.98;;
26914;SDS011;14480;52.608;13.416;2022-09-16T10:25:20;8.75;;;1.20;;
26914;SDS011;14480;52.608;13.416;2022-09-16T10:30:28;6.22;;;1.30;;
26914;SDS011;14480;52.608;13.416;2022-09-16T10:35:34;6.72;;;1.55;;
26914;SDS011;14480;52.608;13.416;2022-09-16T10:40:49;7.78;;;1.48;;
26914;SDS011;14480;52.608;13.416;2022-09-16T10:45:55;8.57;;;1.70;;
26914;SDS011;14480;52.608;13.416;2022-09-16T10:51:01;7.63;;;1.23;;
26914;SDS011;14480;52.608;13.416;2022-09-16T10:56:15;7.82;;;1.38;;
26914;SDS011;14480;52.608;13.416;2022-09-16T11:01:26;9.00;;;1.60;;
26914;SDS011;14480;52.608;13.416;2022-09-16T11:06:49;5.03;;;1.40;;
26914;SDS011;14480;52.608;13.416;2022-09-16T11:12:30;3.88;;;1.13;;
26914;SDS011;14480;52.608;13.416;2022-09-16T11:17:45;5.47;;;1.08;;
26914;SDS011;14480;52.608;13.416;2022-09-16T11:22:58;5.80;;;1.05;;
26914;SDS011;14480;52.608;13.416;2022-09-16T11:28:15;10.88;;;1.65;;
26914;SDS011;14480;52.608;13.416;2022-09-16T11:33:39;6.30;;;1.40;;
26914;SDS011;14480;52.608;13.416;2022-09-16T11:38:55;6.30;;;1.45;;
26914;SDS011;14480;52.608;13.416;2022-09-16T11:44:13;4.32;;;1.05;;
26914;SDS011;14480;52.608;13.416;2022-09-16T11:49:37;6.68;;;1.02;;
26914;SDS011;14480;52.608;13.416;2022-09-16T11:55:06;7.15;;;1.40;;
26914;SDS011;14480;52.608;13.416;2022-09-16T12:00:24;5.25;;;1.20;;
26914;SDS011;14480;52.608;13.416;2022-09-16T12:05:53;11.13;;;1.67;;
26914;SDS011;14480;52.608;13.416;2022-09-16T12:16:15;10.90;;;1.30;;
26914;SDS011;14480;52.608;13.416;2022-09-16T12:21:24;5.35;;;1.35;;
26914;SDS011;14480;52.608;13.416;2022-09-16T12:26:35;4.68;;;0.90;;
26914;SDS011;14480;52.608;13.416;2022-09-16T12:31:43;6.75;;;1.10;;
26914;SDS011;14480;52.608;13.416;2022-09-16T12:36:54;7.93;;;0.90;;
26914;SDS011;14480;52.608;13.416;2022-09-16T12:42:10;3.28;;;1.00;;
26914;SDS011;14480;52.608;13.416;2022-09-16T12:59:12;7.37;;;1.20;;
26914;SDS011;14480;52.608;13.416;2022-09-16T13:04:29;4.03;;;1.37;;
26914;SDS011;14480;52.608;13.416;2022-09-16T13:09:36;5.43;;;1.08;;
26914;SDS011;14480;52.608;13.416;2022-09-16T13:14:45;7.78;;;1.38;;
26914;SDS011;14480;52.608;13.416;2022-09-16T13:19:53;7.13;;;1.38;;
26914;SDS011;14480;52.608;13.416;2022-09-16T13:25:07;4.70;;;1.05;;
26914;SDS011;14480;52.608;13.416;2022-09-16T13:30:24;6.40;;;1.20;;
26914;SDS011;14480;52.608;13.416;2022-09-16T13:35:38;6.75;;;1.13;;
26914;SDS011;14480;52.608;13.416;2022-09-16T13:40:51;8.52;;;1.48;;
26914;SDS011;14480;52.608;13.416;2022-09-16T13:46:01;6.38;;;1.25;;
26914;SDS011;14480;52.608;13.416;2022-09-16T13:51:09;5.90;;;1.10;;
26914;SDS011;14480;52.608;13.416;2022-09-16T13:56:25;5.70;;;1.33;;
26914;SDS011;14480;52.608;13.416;2022-09-16T14:07:33;3.75;;;0.70;;
26914;SDS011;14480;52.608;13.416;2022-09-16T14:18:14;7.90;;;1.10;;
26914;SDS011;14480;52.608;13.416;2022-09-16T14:23:22;6.20;;;1.20;;
26914;SDS011;14480;52.608;13.416;2022-09-16T14:28:48;6.05;;;1.00;;
26914;SDS011;14480;52.608;13.416;2022-09-16T14:34:05;5.30;;;1.02;;
26914;SDS011;14480;52.608;13.416;2022-09-16T14:39:12;9.13;;;1.67;;
26914;SDS011;14480;52.608;13.416;2022-09-16T14:44:20;5.63;;;1.20;;
26914;SDS011;14480;52.608;13.416;2022-09-16T14:49:33;5.43;;;1.08;;
26914;SDS011;14480;52.608;13.416;2022-09-16T14:54:42;10.93;;;1.65;;
26914;SDS011;14480;52.608;13.416;2022-09-16T15:00:00;11.98;;;1.70;;
26914;SDS011;14480;52.608;13.416;2022-09-16T15:05:19;6.32;;;1.08;;
26914;SDS011;14480;52.608;13.416;2022-09-16T15:10:26;7.22;;;1.38;;
26914;SDS011;14480;52.608;13.416;2022-09-16T15:15:52;10.10;;;0.90;;
26914;SDS011;14480;52.608;13.416;2022-09-16T15:21:03;8.05;;;1.48;;
26914;SDS011;14480;52.608;13.416;2022-09-16T15:26:12;4.53;;;1.10;;
26914;SDS011;14480;52.608;13.416;2022-09-16T15:31:25;9.80;;;1.30;;
26914;SDS011;14480;52.608;13.416;2022-09-16T15:36:36;9.23;;;1.42;;
26914;SDS011;14480;52.608;13.416;2022-09-16T15:41:41;7.15;;;1.55;;
26914;SDS011;14480;52.608;13.416;2022-09-16T15:46:48;6.88;;;1.25;;
26914;SDS011;14480;52.608;13.416;2022-09-16T15:51:53;9.23;;;1.40;;
26914;SDS011;14480;52.608;13.416;2022-09-16T15:56:59;10.40;;;1.48;;
26914;SDS011;14480;52.608;13.416;2022-09-16T16:02:21;4.80;;;1.30;;
26914;SDS011;14480;52.608;13.416;2022-09-16T16:07:39;6.38;;;1.45;;
26914;SDS011;14480;52.608;13.416;2022-09-16T16:12:44;7.90;;;1.75;;
26914;SDS011;14480;52.608;13.416;2022-09-16T16:17:59;6.70;;;1.98;;
26914;SDS011;14480;52.608;13.416;2022-09-16T16:23:06;7.55;;;1.80;;
26914;SDS011;14480;52.608;13.416;2022-09-16T16:28:10;8.02;;;2.35;;
26914;SDS011;14480;52.608;13.416;2022-09-16T16:33:14;11.05;;;2.67;;
26914;SDS011;14480;52.608;13.416;2022-09-16T16:38:18;12.05;;;3.00;;
26914;SDS011;14480;52.608;13.416;2022-09-16T16:43:22;13.57;;;2.08;;
26914;SDS011;14480;52.608;13.416;2022-09-16T16:48:44;10.88;;;2.53;;
26914;SDS011;14480;52.608;13.416;2022-09-16T16:53:49;13.10;;;2.23;;
26914;SDS011;14480;52.608;13.416;2022-09-16T16:58:54;14.30;;;1.70;;
26914;SDS011;14480;52.608;13.416;2022-09-16T17:03:57;10.07;;;1.90;;
26914;SDS011;14480;52.608;13.416;2022-09-16T17:09:03;6.45;;;1.70;;
26914;SDS011;14480;52.608;13.416;2022-09-16T17:14:07;9.77;;;2.35;;
26914;SDS011;14480;52.608;13.416;2022-09-16T17:19:11;9.82;;;1.52;;
26914;SDS011;14480;52.608;13.416;2022-09-16T17:24:19;8.13;;;1.67;;
26914;SDS011;14480;52.608;13.416;2022-09-16T17:29:23;10.70;;;2.00;;
26914;SDS011;14480;52.608;13.416;2022-09-16T17:34:27;9.68;;;2.20;;
26914;SDS011;14480;52.608;13.416;2022-09-16T17:39:35;9.50;;;2.28;;
26914;SDS011;14480;52.608;13.416;2022-09-16T17:44:39;10.35;;;2.40;;
26914;SDS011;14480;52.608;13.416;2022-09-16T17:49:45;8.45;;;1.92;;
26914;SDS011;14480;52.608;13.416;2022-09-16T17:55:16;10.43;;;2.60;;
26914;SDS011;14480;52.608;13.416;2022-09-16T18:00:23;7.32;;;2.25;;
26914;SDS011;14480;52.608;13.416;2022-09-16T18:05:44;8.82;;;2.30;;
26914;SDS011;14480;52.608;13.416;2022-09-16T18:10:52;7.25;;;1.48;;
26914;SDS011;14480;52.608;13.416;2022-09-16T18:15:59;9.20;;;2.10;;
26914;SDS011;14480;52.608;13.416;2022-09-16T18:21:06;6.75;;;2.13;;
26914;SDS011;14480;52.608;13.416;2022-09-16T18:26:13;11.60;;;2.33;;
26914;SDS011;14480;52.608;13.416;2022-09-16T18:31:18;8.75;;;1.85;;
26914;SDS011;14480;52.608;13.416;2022-09-16T18:36:25;6.75;;;1.70;;
26914;SDS011;14480;52.608;13.416;2022-09-16T18:41:33;8.27;;;2.00;;
26914;SDS011;14480;52.608;13.416;2022-09-16T18:46:41;5.38;;;1.30;;
26914;SDS011;14480;52.608;13.416;2022-09-16T18:51:45;9.37;;;1.80;;
26914;SDS011;14480;52.608;13.416;2022-09-16T18:56:59;5.00;;;1.33;;
26914;SDS011;14480;52.608;13.416;2022-09-16T19:02:04;7.78;;;1.98;;
26914;SDS011;14480;52.608;13.416;2022-09-16T19:07:16;11.43;;;1.80;;
26914;SDS011;14480;52.608;13.416;2022-09-16T19:12:29;8.85;;;1.90;;
26914;SDS011;14480;52.608;13.416;2022-09-16T19:17:39;13.98;;;1.80;;
26914;SDS011;14480;52.608;13.416;2022-09-16T19:22:53;7.72;;;1.48;;
26914;SDS011;14480;52.608;13.416;2022-09-16T19:27:59;7.93;;;1.50;;
26914;SDS011;14480;52.608;13.416;2022-09-16T19:33:05;7.30;;;1.83;;
26914;SDS011;14480;52.608;13.416;2022-09-16T19:38:12;9.55;;;1.65;;
26914;SDS011;14480;52.608;13.416;2022-09-16T19:43:18;10.15;;;1.63;;
26914;SDS011;14480;52.608;13.416;2022-09-16T19:53:45;11.00;;;1.90;;
26914;SDS011;14480;52.608;13.416;2022-09-16T19:58:52;9.20;;;3.03;;
26914;SDS011;14480;52.608;13.416;2022-09-16T20:03:56;11.25;;;2.38;;
26914;SDS011;14480;52.608;13.416;2022-09-16T20:09:01;7.60;;;1.70;;
26914;SDS011;14480;52.608;13.416;2022-09-16T20:14:12;8.45;;;1.58;;
26914;SDS011;14480;52.608;13.416;2022-09-16T20:19:17;7.80;;;1.40;;
26914;SDS011;14480;52.608;13.416;2022-09-16T20:24:22;9.75;;;1.70;;
26914;SDS011;14480;52.608;13.416;2022-09-16T20:29:30;7.20;;;1.50;;
26914;SDS011;14480;52.608;13.416;2022-09-16T20:34:40;8.55;;;1.65;;
26914;SDS011;14480;52.608;13.416;2022-09-16T20:39:44;9.00;;;1.80;;
26914;SDS011;14480;52.608;13.416;2022-09-16T20:44:49;8.20;;;1.80;;
26914;SDS011;14480;52.608;13.416;2022-09-16T20:55:04;9.27;;;1.63;;
26914;SDS011;14480;52.608;13.416;2022-09-16T21:00:10;15.35;;;2.05;;
26914;SDS011;14480;52.608;13.416;2022-09-16T21:05:16;12.80;;;2.55;;
26914;SDS011;14480;52.608;13.416;2022-09-16T21:10:27;11.82;;;3.33;;
26914;SDS011;14480;52.608;13.416;2022-09-16T21:15:32;18.35;;;5.90;;
26914;SDS011;14480;52.608;13.416;2022-09-16T21:20:36;12.27;;;3.28;;
